createdAt,value
2019-01-13T00:01:08.977Z,6.66
2019-01-13T00:03:36.773Z,6.60
2019-01-13T00:06:04.660Z,6.55
2019-01-13T00:08:32.551Z,6.57
2019-01-13T00:11:00.298Z,6.54
2019-01-13T00:13:28.361Z,6.55
2019-01-13T00:15:56.253Z,6.60
2019-01-13T00:18:24.253Z,6.68
2019-01-13T00:20:52.035Z,6.57
2019-01-13T00:23:19.767Z,6.67
2019-01-13T00:25:49.111Z,6.65
2019-01-13T00:28:16.859Z,6.61
2019-01-13T00:30:44.657Z,6.67
2019-01-13T00:33:12.425Z,6.67
2019-01-13T00:35:40.191Z,6.70
2019-01-13T00:38:07.929Z,6.71
2019-01-13T00:40:35.709Z,6.63
2019-01-13T00:43:03.541Z,6.78
2019-01-13T00:45:31.307Z,6.74
2019-01-13T00:47:59.080Z,6.73
2019-01-13T00:50:26.983Z,6.74
2019-01-13T00:52:54.694Z,6.75
2019-01-13T00:55:22.430Z,6.71
2019-01-13T00:57:50.211Z,6.68
2019-01-13T01:00:26.386Z,6.70
2019-01-13T01:02:50.439Z,6.63
2019-01-13T01:05:18.376Z,6.69
2019-01-13T01:07:48.574Z,6.73
2019-01-13T01:10:17.180Z,6.79
2019-01-13T01:12:44.916Z,6.77
2019-01-13T01:15:13.766Z,6.72
2019-01-13T01:17:41.535Z,6.69
2019-01-13T01:20:11.208Z,6.73
2019-01-13T01:22:38.972Z,6.73
2019-01-13T01:25:08.202Z,6.70
2019-01-13T01:27:36.024Z,6.70
2019-01-13T01:30:09.026Z,6.76
2019-01-13T01:32:36.798Z,6.73
2019-01-13T01:35:04.954Z,6.79
2019-01-13T01:37:32.716Z,6.88
2019-01-13T01:40:00.467Z,6.67
2019-01-13T01:42:28.213Z,6.73
2019-01-13T01:44:55.945Z,6.88
2019-01-13T01:47:23.715Z,6.92
2019-01-13T01:49:51.465Z,6.87
2019-01-13T01:52:19.266Z,6.87
2019-01-13T01:54:47.069Z,6.91
2019-01-13T01:57:14.866Z,6.91
2019-01-13T01:59:43.745Z,6.90
2019-01-13T02:02:11.609Z,6.79
2019-01-13T02:04:39.376Z,6.73
2019-01-13T02:07:07.208Z,6.83
2019-01-13T02:09:34.945Z,6.93
2019-01-13T02:12:02.698Z,6.79
2019-01-13T02:14:30.492Z,6.74
2019-01-13T02:17:01.207Z,6.79
2019-01-13T02:19:28.963Z,6.90
2019-01-13T02:21:56.699Z,6.88
2019-01-13T02:24:24.765Z,6.95
2019-01-13T02:26:52.640Z,7.00
2019-01-13T02:29:20.363Z,6.92
2019-01-13T02:31:48.337Z,6.83
2019-01-13T02:34:16.061Z,6.78
2019-01-13T02:36:43.830Z,6.80
2019-01-13T02:39:11.578Z,6.93
2019-01-13T02:41:39.315Z,6.79
2019-01-13T02:44:07.061Z,6.98
2019-01-13T02:46:34.834Z,7.02
2019-01-13T02:49:02.580Z,6.93
2019-01-13T02:51:30.325Z,6.86
2019-01-13T02:53:58.108Z,6.91
2019-01-13T02:56:25.870Z,6.77
2019-01-13T02:58:53.610Z,6.88
2019-01-13T03:01:21.387Z,6.90
2019-01-13T03:03:49.140Z,6.84
2019-01-13T03:06:16.914Z,6.95
2019-01-13T03:08:44.659Z,6.78
2019-01-13T03:11:12.450Z,6.78
2019-01-13T03:13:40.170Z,6.95
2019-01-13T03:16:07.922Z,6.96
2019-01-13T03:18:35.752Z,6.96
2019-01-13T03:21:03.488Z,7.04
2019-01-13T03:23:31.244Z,7.03
2019-01-13T03:25:59.090Z,7.04
2019-01-13T03:28:26.946Z,6.93
2019-01-13T03:30:54.691Z,7.00
2019-01-13T03:33:22.474Z,6.97
2019-01-13T03:35:50.224Z,6.92
2019-01-13T03:38:18.010Z,6.83
2019-01-13T03:40:45.734Z,6.82
2019-01-13T03:43:13.488Z,6.83
2019-01-13T03:45:41.228Z,6.93
2019-01-13T03:48:09.066Z,6.78
2019-01-13T03:50:36.794Z,6.96
2019-01-13T03:53:04.535Z,6.92
2019-01-13T03:55:32.258Z,7.13
2019-01-13T03:57:59.997Z,7.11
2019-01-13T04:00:27.732Z,7.09
2019-01-13T04:02:55.542Z,7.13
2019-01-13T04:05:23.400Z,7.12
2019-01-13T04:07:51.290Z,7.18
2019-01-13T04:10:19.016Z,7.12
2019-01-13T04:12:46.806Z,7.04
2019-01-13T04:16:05.929Z,6.97
2019-01-13T04:18:33.681Z,6.94
2019-01-13T04:21:01.415Z,7.06
2019-01-13T04:23:29.171Z,7.01
2019-01-13T04:25:56.990Z,6.89
2019-01-13T04:28:24.791Z,7.00
2019-01-13T04:30:52.792Z,7.07
2019-01-13T04:33:20.582Z,7.03
2019-01-13T04:35:48.453Z,6.97
2019-01-13T04:38:16.198Z,7.11
2019-01-13T04:40:43.927Z,7.11
2019-01-13T04:43:11.669Z,6.93
2019-01-13T04:45:39.415Z,6.71
2019-01-13T04:48:07.166Z,6.87
2019-01-13T04:50:34.925Z,6.96
2019-01-13T04:53:02.698Z,6.97
2019-01-13T04:55:30.475Z,6.91
2019-01-13T04:57:58.234Z,6.92
2019-01-13T05:00:25.979Z,6.97
2019-01-13T05:02:53.736Z,6.90
2019-01-13T05:05:21.633Z,6.96
2019-01-13T05:07:49.469Z,6.93
2019-01-13T05:10:18.642Z,6.92
2019-01-13T05:12:46.485Z,6.94
2019-01-13T05:15:14.356Z,6.83
2019-01-13T05:17:42.118Z,6.85
2019-01-13T05:20:13.804Z,6.89
2019-01-13T05:22:42.099Z,6.95
2019-01-13T05:25:09.964Z,6.97
2019-01-13T05:27:37.714Z,7.02
2019-01-13T05:30:17.992Z,6.95
2019-01-13T05:32:45.715Z,6.97
2019-01-13T05:35:13.610Z,7.01
2019-01-13T05:37:41.360Z,7.02
2019-01-13T05:40:12.354Z,7.13
2019-01-13T05:42:40.092Z,7.01
2019-01-13T05:45:09.673Z,7.09
2019-01-13T05:47:37.438Z,7.02
2019-01-13T05:50:06.378Z,7.11
2019-01-13T05:52:34.397Z,7.08
2019-01-13T05:55:03.244Z,7.09
2019-01-13T05:57:30.966Z,6.93
2019-01-13T05:59:58.705Z,6.94
2019-01-13T06:02:26.452Z,6.96
2019-01-13T06:04:54.215Z,7.04
2019-01-13T06:07:21.967Z,7.01
2019-01-13T06:09:49.789Z,6.94
2019-01-13T06:12:17.597Z,6.95
2019-01-13T06:14:45.360Z,6.97
2019-01-13T06:17:13.121Z,7.04
2019-01-13T06:19:41.758Z,6.96
2019-01-13T06:22:09.481Z,6.91
2019-01-13T06:24:37.247Z,7.00
2019-01-13T06:27:04.985Z,7.13
2019-01-13T06:29:32.743Z,6.93
2019-01-13T06:32:00.793Z,7.02
2019-01-13T06:34:28.799Z,7.09
2019-01-13T06:36:56.544Z,7.12
2019-01-13T06:39:24.283Z,7.07
2019-01-13T06:41:52.041Z,7.14
2019-01-13T06:44:19.760Z,7.06
2019-01-13T06:46:47.537Z,7.07
2019-01-13T06:49:15.756Z,6.95
2019-01-13T06:51:43.522Z,6.92
2019-01-13T06:54:11.542Z,6.99
2019-01-13T06:56:39.341Z,6.97
2019-01-13T06:59:07.090Z,6.90
2019-01-13T07:01:34.830Z,6.75
2019-01-13T07:04:02.662Z,6.87
2019-01-13T07:06:30.436Z,6.79
2019-01-13T07:09:30.448Z,6.75
2019-01-13T07:11:58.188Z,6.72
2019-01-13T07:14:25.913Z,6.79
2019-01-13T07:16:53.692Z,6.83
2019-01-13T07:19:21.420Z,6.89
2019-01-13T07:21:49.179Z,6.92
2019-01-13T07:24:33.443Z,6.98
2019-01-13T07:27:01.252Z,7.00
2019-01-13T07:29:29.295Z,6.78
2019-01-13T07:31:57.020Z,6.91
2019-01-13T07:34:25.444Z,7.02
2019-01-13T07:36:57.617Z,6.91
2019-01-13T07:39:25.443Z,6.95
2019-01-13T07:41:55.647Z,6.94
2019-01-13T07:44:23.363Z,7.01
2019-01-13T07:46:51.145Z,6.92
2019-01-13T07:50:03.411Z,6.99
2019-01-13T07:52:35.480Z,7.00
2019-01-13T07:55:05.131Z,7.07
2019-01-13T07:57:36.324Z,7.09
2019-01-13T08:00:07.804Z,7.03
2019-01-13T08:02:39.099Z,7.15
2019-01-13T08:05:07.077Z,7.18
2019-01-13T08:07:37.578Z,7.25
2019-01-13T08:10:09.125Z,7.21
2019-01-13T08:12:36.958Z,7.24
2019-01-13T08:15:09.724Z,7.28
2019-01-13T08:17:37.559Z,7.31
2019-01-13T08:20:23.508Z,7.20
2019-01-13T08:23:11.879Z,7.21
2019-01-13T08:25:39.693Z,7.29
2019-01-13T08:28:13.603Z,7.42
2019-01-13T08:30:41.392Z,7.31
2019-01-13T08:33:13.551Z,7.31
2019-01-13T08:35:42.543Z,7.35
2019-01-13T08:38:12.806Z,7.27
2019-01-13T08:40:40.576Z,7.49
2019-01-13T08:43:14.272Z,7.44
2019-01-13T08:45:42.191Z,7.46
2019-01-13T08:48:10.044Z,7.55
2019-01-13T08:50:41.256Z,7.55
2019-01-13T08:53:17.275Z,7.55
2019-01-13T08:55:52.448Z,7.60
2019-01-13T08:58:20.255Z,7.35
2019-01-13T09:00:48.030Z,7.45
2019-01-13T09:03:28.487Z,7.48
2019-01-13T09:05:56.338Z,7.53
2019-01-13T09:08:31.954Z,7.47
2019-01-13T09:11:12.422Z,7.44
2019-01-13T09:13:58.767Z,7.47
2019-01-13T09:16:26.932Z,7.48
2019-01-13T09:19:01.571Z,7.48
2019-01-13T09:21:38.446Z,7.40
2019-01-13T09:24:06.326Z,7.37
2019-01-13T09:26:36.538Z,7.33
2019-01-13T09:29:16.592Z,7.39
2019-01-13T09:31:44.368Z,7.42
2019-01-13T09:34:12.148Z,7.41
2019-01-13T09:36:50.550Z,7.47
2019-01-13T09:39:18.756Z,7.58
2019-01-13T09:41:46.482Z,7.61
2019-01-13T09:44:14.309Z,7.76
2019-01-13T09:46:42.144Z,7.65
2019-01-13T09:49:09.921Z,7.82
2019-01-13T09:51:42.805Z,7.77
2019-01-13T09:54:10.579Z,7.80
2019-01-13T09:56:38.307Z,7.68
2019-01-13T09:59:15.108Z,7.71
2019-01-13T10:01:41.688Z,7.68
2019-01-13T10:04:16.311Z,7.75
2019-01-13T10:06:44.333Z,7.83
2019-01-13T10:09:15.422Z,7.81
2019-01-13T10:11:43.162Z,7.80
2019-01-13T10:14:12.786Z,7.84
2019-01-13T10:16:40.547Z,8.07
2019-01-13T10:19:13.127Z,8.24
2019-01-13T10:21:41.389Z,8.29
2019-01-13T10:24:09.078Z,8.31
2019-01-13T10:26:36.889Z,8.39
2019-01-13T10:29:07.214Z,8.34
2019-01-13T10:31:38.299Z,8.21
2019-01-13T10:34:06.013Z,8.02
2019-01-13T10:36:42.854Z,8.01
2019-01-13T10:39:10.632Z,8.02
2019-01-13T10:41:38.401Z,8.02
2019-01-13T10:44:15.921Z,8.05
2019-01-13T10:46:46.666Z,7.89
2019-01-13T10:49:14.556Z,8.06
2019-01-13T10:51:48.278Z,7.91
2019-01-13T10:54:16.062Z,8.00
2019-01-13T10:56:43.816Z,8.06
2019-01-13T10:59:11.572Z,8.09
2019-01-13T11:01:39.820Z,8.12
2019-01-13T11:04:11.140Z,8.04
2019-01-13T11:06:42.072Z,7.93
2019-01-13T11:09:14.561Z,7.85
2019-01-13T11:11:42.382Z,7.91
2019-01-13T11:14:19.196Z,7.84
2019-01-13T11:16:46.962Z,7.91
2019-01-13T11:19:15.491Z,7.91
2019-01-13T11:21:43.926Z,7.73
2019-01-13T11:24:14.054Z,7.90
2019-01-13T11:26:44.612Z,7.86
2019-01-13T11:29:12.380Z,7.57
2019-01-13T11:31:40.136Z,7.52
2019-01-13T11:34:14.023Z,7.57
2019-01-13T11:36:45.166Z,7.61
2019-01-13T11:39:12.976Z,7.62
2019-01-13T11:41:49.681Z,7.58
2019-01-13T11:44:17.491Z,7.54
2019-01-13T11:46:56.860Z,7.55
2019-01-13T11:49:27.451Z,7.45
2019-01-13T11:51:57.671Z,7.42
2019-01-13T11:54:33.013Z,7.62
2019-01-13T11:57:11.415Z,7.73
2019-01-13T11:59:48.654Z,7.73
2019-01-13T12:02:32.562Z,7.73
2019-01-13T12:04:59.383Z,7.88
2019-01-13T12:07:33.000Z,8.04
2019-01-13T12:10:07.043Z,7.79
2019-01-13T12:12:35.373Z,8.01
2019-01-13T12:15:19.682Z,7.96
2019-01-13T12:17:56.023Z,7.89
2019-01-13T12:20:44.949Z,7.90
2019-01-13T12:23:16.540Z,7.98
2019-01-13T12:25:54.902Z,7.96
2019-01-13T12:28:39.738Z,8.04
2019-01-13T12:31:13.125Z,8.04
2019-01-13T12:33:52.412Z,7.98
2019-01-13T12:36:33.283Z,7.89
2019-01-13T12:39:08.428Z,7.87
2019-01-13T12:41:45.251Z,7.90
2019-01-13T12:44:14.959Z,7.90
2019-01-13T12:46:47.634Z,7.99
2019-01-13T12:49:15.570Z,7.98
2019-01-13T12:51:43.336Z,8.14
2019-01-13T12:54:11.127Z,8.22
2019-01-13T12:56:38.931Z,8.29
2019-01-13T12:59:06.726Z,8.11
2019-01-13T13:01:36.938Z,8.19
2019-01-13T13:04:04.742Z,8.23
2019-01-13T13:06:32.512Z,8.24
2019-01-13T13:09:00.932Z,8.18
2019-01-13T13:11:29.104Z,8.13
2019-01-13T13:13:56.931Z,8.20
2019-01-13T13:16:24.678Z,8.31
2019-01-13T13:18:52.416Z,8.32
2019-01-13T13:21:20.182Z,8.31
2019-01-13T13:23:47.943Z,8.28
2019-01-13T13:26:15.714Z,8.30
2019-01-13T13:28:43.626Z,8.36
2019-01-13T13:31:11.461Z,8.41
2019-01-13T13:33:39.266Z,8.49
2019-01-13T13:36:09.437Z,8.40
2019-01-13T13:38:37.355Z,8.49
2019-01-13T13:41:05.317Z,8.46
2019-01-13T13:43:32.230Z,8.41
2019-01-13T13:46:01.651Z,8.52
2019-01-13T13:48:52.983Z,8.62
2019-01-13T13:51:21.162Z,8.49
2019-01-13T13:53:48.984Z,8.43
2019-01-13T13:56:17.002Z,8.46
2019-01-13T13:58:44.808Z,8.35
2019-01-13T14:01:12.750Z,8.36
2019-01-13T14:03:45.751Z,8.43
2019-01-13T14:06:10.243Z,8.42
2019-01-13T14:08:38.118Z,8.48
2019-01-13T14:11:05.875Z,8.48
2019-01-13T14:13:33.684Z,8.45
2019-01-13T14:16:01.574Z,8.42
2019-01-13T14:18:29.378Z,8.42
2019-01-13T14:20:57.220Z,8.41
2019-01-13T14:23:25.027Z,8.56
2019-01-13T14:25:52.833Z,8.58
2019-01-13T14:28:20.589Z,8.65
2019-01-13T14:30:48.343Z,8.60
2019-01-13T14:33:16.105Z,8.57
2019-01-13T14:35:43.957Z,8.62
2019-01-13T14:38:11.747Z,8.64
2019-01-13T14:40:39.538Z,8.66
2019-01-13T14:43:07.298Z,8.67
2019-01-13T14:45:35.083Z,8.74
2019-01-13T14:48:03.385Z,8.73
2019-01-13T14:50:32.289Z,8.77
2019-01-13T14:53:00.601Z,8.60
2019-01-13T14:55:28.651Z,8.76
2019-01-13T14:57:56.518Z,8.71
2019-01-13T15:00:29.735Z,8.75
2019-01-13T15:02:57.611Z,8.74
2019-01-13T15:05:25.479Z,8.77
2019-01-13T15:07:53.415Z,8.71
2019-01-13T15:10:21.945Z,8.78
2019-01-13T15:12:49.723Z,8.79
2019-01-13T15:15:17.683Z,8.76
2019-01-13T15:17:45.697Z,8.82
2019-01-13T15:20:16.285Z,8.80
2019-01-13T15:22:44.511Z,8.72
2019-01-13T15:25:54.585Z,8.75
2019-01-13T15:28:22.552Z,8.69
2019-01-13T15:30:50.311Z,8.69
2019-01-13T15:33:18.117Z,8.72
2019-01-13T15:35:45.896Z,8.73
2019-01-13T15:38:21.263Z,8.78
2019-01-13T15:40:49.058Z,8.76
2019-01-13T15:43:16.877Z,8.82
2019-01-13T15:45:44.640Z,8.80
2019-01-13T15:48:12.468Z,8.90
2019-01-13T15:50:40.236Z,8.91
2019-01-13T15:53:08.038Z,8.83
2019-01-13T15:55:35.824Z,8.70
2019-01-13T15:58:04.135Z,8.78
2019-01-13T16:00:34.149Z,8.77
2019-01-13T16:03:01.908Z,8.79
2019-01-13T16:05:29.731Z,8.85
2019-01-13T16:07:57.488Z,8.83
2019-01-13T16:10:25.591Z,8.83
2019-01-13T16:12:54.212Z,8.82
2019-01-13T16:15:22.220Z,8.84
2019-01-13T16:17:50.222Z,8.85
2019-01-13T16:20:21.900Z,8.90
2019-01-13T16:22:49.816Z,8.96
2019-01-13T16:25:17.589Z,8.94
2019-01-13T16:27:45.462Z,8.93
2019-01-13T16:30:17.244Z,8.94
2019-01-13T16:32:45.039Z,8.97
2019-01-13T16:35:12.968Z,8.94
2019-01-13T16:37:40.747Z,8.92
2019-01-13T16:40:12.417Z,8.93
2019-01-13T16:42:40.469Z,8.86
2019-01-13T16:45:09.727Z,8.92
2019-01-13T16:47:37.503Z,8.93
2019-01-13T16:50:12.715Z,8.99
2019-01-13T16:52:40.603Z,8.95
2019-01-13T16:55:11.276Z,8.87
2019-01-13T16:57:39.228Z,8.86
2019-01-13T17:00:13.034Z,8.86
2019-01-13T17:02:41.073Z,8.90
2019-01-13T17:05:10.641Z,9.00
2019-01-13T17:07:40.467Z,8.94
2019-01-13T17:10:12.158Z,8.91
2019-01-13T17:12:39.908Z,8.92
2019-01-13T17:15:10.013Z,8.85
2019-01-13T17:17:37.772Z,8.98
2019-01-13T17:20:10.057Z,9.00
2019-01-13T17:22:37.828Z,9.07
2019-01-13T17:25:06.287Z,9.11
2019-01-13T17:27:34.132Z,9.08
2019-01-13T17:30:02.121Z,9.10
2019-01-13T17:32:29.891Z,9.03
2019-01-13T17:34:57.686Z,9.06
2019-01-13T17:37:25.584Z,9.11
2019-01-13T17:39:53.384Z,9.10
2019-01-13T17:42:21.176Z,9.19
2019-01-13T17:44:48.988Z,9.16
2019-01-13T17:47:16.750Z,9.12
2019-01-13T17:49:44.502Z,9.12
2019-01-13T17:52:12.297Z,9.07
2019-01-13T17:54:40.031Z,9.11
2019-01-13T17:57:07.955Z,9.08
2019-01-13T17:59:35.723Z,9.06
2019-01-13T18:02:03.491Z,9.08
2019-01-13T18:04:31.261Z,9.12
2019-01-13T18:06:59.052Z,9.15
2019-01-13T18:09:26.851Z,9.13
2019-01-13T18:11:54.641Z,9.05
2019-01-13T18:14:28.345Z,9.07
2019-01-13T18:16:56.279Z,9.00
2019-01-13T18:19:24.086Z,9.02
2019-01-13T18:21:51.898Z,9.14
2019-01-13T18:24:19.656Z,9.21
2019-01-13T18:26:53.289Z,9.19
2019-01-13T18:29:39.671Z,9.23
2019-01-13T18:32:12.810Z,9.27
2019-01-13T18:34:50.229Z,8.96
2019-01-13T18:37:26.371Z,9.03
2019-01-13T18:40:26.674Z,9.05
2019-01-13T18:43:33.238Z,9.04
2019-01-13T18:46:00.914Z,9.18
2019-01-13T18:48:31.314Z,9.03
2019-01-13T18:51:15.030Z,9.15
2019-01-13T18:54:20.360Z,9.12
2019-01-13T18:56:48.229Z,8.96
2019-01-13T18:59:16.022Z,8.94
2019-01-13T19:01:43.765Z,9.18
2019-01-13T19:04:11.560Z,9.16
2019-01-13T19:06:39.439Z,9.08
2019-01-13T19:09:10.470Z,9.16
2019-01-13T19:11:43.806Z,9.09
2019-01-13T19:14:25.197Z,8.84
2019-01-13T19:17:05.462Z,8.57
2019-01-13T19:20:18.180Z,8.47
2019-01-13T19:22:49.158Z,8.25
2019-01-13T19:25:29.802Z,8.13
2019-01-13T19:27:57.542Z,8.03
2019-01-13T19:30:25.350Z,8.04
2019-01-13T19:32:53.166Z,7.95
2019-01-13T19:35:21.286Z,7.94
2019-01-13T19:37:49.066Z,7.70
2019-01-13T19:40:17.044Z,7.55
2019-01-13T19:42:45.013Z,7.58
2019-01-13T19:45:15.656Z,7.51
2019-01-13T19:47:43.496Z,7.52
2019-01-13T19:50:14.635Z,7.30
2019-01-13T19:52:42.380Z,7.42
2019-01-13T19:55:12.459Z,7.28
2019-01-13T19:57:40.317Z,7.15
2019-01-13T20:00:14.577Z,7.19
2019-01-13T20:02:42.303Z,7.12
2019-01-13T20:05:11.949Z,7.18
2019-01-13T20:07:44.878Z,7.06
2019-01-13T20:10:13.711Z,7.23
2019-01-13T20:12:41.507Z,7.25
2019-01-13T20:15:11.300Z,7.26
2019-01-13T20:17:47.711Z,7.38
2019-01-13T20:20:15.800Z,7.35
2019-01-13T20:22:43.599Z,7.40
2019-01-13T20:25:11.786Z,7.41
2019-01-13T20:27:40.084Z,7.55
2019-01-13T20:30:14.967Z,7.60
2019-01-13T20:32:42.838Z,7.57
2019-01-13T20:35:10.717Z,7.63
2019-01-13T20:37:38.513Z,7.67
2019-01-13T20:40:09.746Z,7.80
2019-01-13T20:42:37.597Z,7.69
2019-01-13T20:45:11.454Z,7.86
2019-01-13T20:47:39.221Z,7.81
2019-01-13T20:50:09.526Z,7.74
2019-01-13T20:52:37.343Z,7.68
2019-01-13T20:55:06.645Z,7.76
2019-01-13T20:57:35.823Z,8.00
2019-01-13T21:00:06.448Z,7.95
2019-01-13T21:02:34.280Z,7.99
2019-01-13T21:05:02.629Z,8.14
2019-01-13T21:07:30.435Z,8.12
2019-01-13T21:09:58.242Z,8.06
2019-01-13T21:12:27.179Z,8.15
2019-01-13T21:14:54.971Z,8.22
2019-01-13T21:17:22.745Z,8.22
2019-01-13T21:19:50.524Z,8.07
2019-01-13T21:22:18.367Z,7.98
2019-01-13T21:24:46.125Z,7.88
2019-01-13T21:27:13.862Z,7.86
2019-01-13T21:29:41.695Z,7.67
2019-01-13T21:32:09.484Z,7.67
2019-01-13T21:34:37.240Z,7.58
2019-01-13T21:37:05.029Z,7.65
2019-01-13T21:39:32.790Z,7.66
2019-01-13T21:42:00.548Z,7.66
2019-01-13T21:44:28.681Z,7.68
2019-01-13T21:46:56.459Z,7.71
2019-01-13T21:49:24.204Z,7.72
2019-01-13T21:51:52.001Z,7.81
2019-01-13T21:54:19.879Z,7.80
2019-01-13T21:56:47.655Z,7.71
2019-01-13T21:59:15.434Z,7.57
2019-01-13T22:01:43.222Z,7.58
2019-01-13T22:04:10.970Z,7.71
2019-01-13T22:06:38.760Z,7.69
2019-01-13T22:09:11.182Z,7.67
2019-01-13T22:11:38.944Z,7.77
2019-01-13T22:14:06.709Z,7.83
2019-01-13T22:16:34.471Z,7.88
2019-01-13T22:19:02.322Z,7.95
2019-01-13T22:21:30.073Z,7.90
2019-01-13T22:23:57.845Z,7.86
2019-01-13T22:26:25.807Z,7.82
2019-01-13T22:28:53.561Z,7.82
2019-01-13T22:31:22.483Z,7.93
2019-01-13T22:33:50.697Z,8.04
2019-01-13T22:36:18.451Z,8.06
2019-01-13T22:38:46.186Z,7.86
2019-01-13T22:41:14.192Z,7.92
2019-01-13T22:43:41.931Z,7.88
2019-01-13T22:46:09.689Z,7.91
2019-01-13T22:48:37.633Z,7.94
2019-01-13T22:51:05.376Z,7.80
2019-01-13T22:53:33.264Z,8.01
2019-01-13T22:56:01.229Z,8.15
2019-01-13T22:58:28.977Z,8.10
2019-01-13T23:01:26.588Z,8.06
2019-01-13T23:03:57.423Z,8.12
2019-01-13T23:06:25.230Z,8.23
2019-01-13T23:08:52.997Z,8.22
2019-01-13T23:11:20.753Z,8.18
2019-01-13T23:13:48.507Z,8.03
2019-01-13T23:16:16.288Z,8.06
2019-01-13T23:18:44.026Z,8.07
2019-01-13T23:21:11.803Z,7.98
2019-01-13T23:23:39.557Z,7.87
2019-01-13T23:26:07.370Z,7.78
2019-01-13T23:28:35.136Z,7.78
2019-01-13T23:31:03.123Z,7.67
2019-01-13T23:33:30.922Z,7.70
2019-01-13T23:36:02.733Z,7.58
2019-01-13T23:38:28.475Z,7.52
2019-01-13T23:40:56.232Z,7.51
2019-01-13T23:43:23.986Z,7.62
2019-01-13T23:45:51.723Z,7.73
2019-01-13T23:48:19.671Z,7.77
2019-01-13T23:50:47.412Z,7.79
2019-01-13T23:53:15.311Z,7.71
2019-01-13T23:55:43.086Z,7.62
2019-01-13T23:58:11.014Z,7.75
